sensor_id;sensor_type;location;lat;lon;timestamp;pressure;altitude;pressure_sealevel;temperature;humidity
75656;BME280;64252;51.094;13.714;2023-05-19T00:01:39;101331.16;;;10.22;69.25
75656;BME280;64252;51.094;13.714;2023-05-19T00:04:08;101336.38;;;10.20;70.13
75656;BME280;64252;51.094;13.714;2023-05-19T00:06:37;101341.19;;;10.20;69.22
75656;BME280;64252;51.094;13.714;2023-05-19T00:09:04;101338.59;;;10.14;69.70
75656;BME280;64252;51.094;13.714;2023-05-19T00:11:32;101338.97;;;10.13;70.19
75656;BME280;64252;51.094;13.714;2023-05-19T00:14:01;101337.34;;;10.12;69.69
75656;BME280;64252;51.094;13.714;2023-05-19T00:16:28;101339.34;;;10.11;70.83
75656;BME280;64252;51.094;13.714;2023-05-19T00:18:54;101346.78;;;10.04;70.53
75656;BME280;64252;51.094;13.714;2023-05-19T00:21:21;101339.06;;;10.01;71.16
75656;BME280;64252;51.094;13.714;2023-05-19T00:23:46;101332.50;;;9.97;70.91
75656;BME280;64252;51.094;13.714;2023-05-19T00:26:12;101335.59;;;9.92;73.20
75656;BME280;64252;51.094;13.714;2023-05-19T00:28:44;101323.38;;;9.88;73.89
75656;BME280;64252;51.094;13.714;2023-05-19T00:31:10;101326.91;;;9.85;73.98
75656;BME280;64252;51.094;13.714;2023-05-19T00:33:35;101329.03;;;9.88;74.17
75656;BME280;64252;51.094;13.714;2023-05-19T00:36:02;101325.38;;;9.87;73.41
75656;BME280;64252;51.094;13.714;2023-05-19T00:38:33;101325.75;;;9.86;73.07
75656;BME280;64252;51.094;13.714;2023-05-19T00:41:00;101320.81;;;9.83;73.48
75656;BME280;64252;51.094;13.714;2023-05-19T00:43:26;101323.91;;;9.78;73.66
75656;BME280;64252;51.094;13.714;2023-05-19T00:45:52;101332.28;;;9.74;74.97
75656;BME280;64252;51.094;13.714;2023-05-19T00:48:21;101327.72;;;9.69;75.42
75656;BME280;64252;51.094;13.714;2023-05-19T00:50:48;101327.50;;;9.62;74.56
75656;BME280;64252;51.094;13.714;2023-05-19T00:53:16;101322.84;;;9.54;75.11
75656;BME280;64252;51.094;13.714;2023-05-19T00:55:43;101322.19;;;9.45;75.99
75656;BME280;64252;51.094;13.714;2023-05-19T00:58:10;101328.78;;;9.37;76.54
75656;BME280;64252;51.094;13.714;2023-05-19T01:00:37;101321.78;;;9.31;77.07
75656;BME280;64252;51.094;13.714;2023-05-19T01:03:05;101329.56;;;9.22;76.82
75656;BME280;64252;51.094;13.714;2023-05-19T01:05:39;101319.22;;;9.14;77.92
75656;BME280;64252;51.094;13.714;2023-05-19T01:08:12;101324.81;;;8.98;77.54
75656;BME280;64252;51.094;13.714;2023-05-19T01:10:38;101312.88;;;8.89;78.77
75656;BME280;64252;51.094;13.714;2023-05-19T01:13:04;101318.59;;;8.80;78.74
75656;BME280;64252;51.094;13.714;2023-05-19T01:15:34;101323.53;;;8.71;79.48
75656;BME280;64252;51.094;13.714;2023-05-19T01:18:13;101320.75;;;8.59;79.70
75656;BME280;64252;51.094;13.714;2023-05-19T01:20:44;101318.19;;;8.54;81.21
75656;BME280;64252;51.094;13.714;2023-05-19T01:31:16;101318.66;;;8.32;80.71
75656;BME280;64252;51.094;13.714;2023-05-19T01:33:46;101320.03;;;8.26;81.21
75656;BME280;64252;51.094;13.714;2023-05-19T01:36:14;101325.41;;;8.19;81.42
75656;BME280;64252;51.094;13.714;2023-05-19T01:38:41;101322.94;;;8.17;81.86
75656;BME280;64252;51.094;13.714;2023-05-19T01:41:08;101323.06;;;8.21;82.14
75656;BME280;64252;51.094;13.714;2023-05-19T01:43:34;101327.88;;;8.20;81.75
75656;BME280;64252;51.094;13.714;2023-05-19T01:46:01;101327.03;;;8.20;81.11
75656;BME280;64252;51.094;13.714;2023-05-19T01:48:27;101320.47;;;8.16;81.33
75656;BME280;64252;51.094;13.714;2023-05-19T01:50:56;101328.53;;;8.05;81.99
75656;BME280;64252;51.094;13.714;2023-05-19T01:53:22;101326.56;;;8.06;82.15
75656;BME280;64252;51.094;13.714;2023-05-19T01:55:50;101328.66;;;7.97;81.92
75656;BME280;64252;51.094;13.714;2023-05-19T02:09:17;101313.38;;;7.73;83.89
75656;BME280;64252;51.094;13.714;2023-05-19T02:12:23;101322.97;;;7.72;84.60
75656;BME280;64252;51.094;13.714;2023-05-19T02:15:01;101321.91;;;7.65;85.56
75656;BME280;64252;51.094;13.714;2023-05-19T02:17:29;101310.78;;;7.68;85.43
75656;BME280;64252;51.094;13.714;2023-05-19T02:20:01;101314.06;;;7.70;84.87
75656;BME280;64252;51.094;13.714;2023-05-19T02:22:30;101317.34;;;7.72;84.85
75656;BME280;64252;51.094;13.714;2023-05-19T02:24:55;101321.34;;;7.71;85.12
75656;BME280;64252;51.094;13.714;2023-05-19T02:27:22;101311.47;;;7.65;85.84
75656;BME280;64252;51.094;13.714;2023-05-19T02:29:48;101313.81;;;7.63;86.23
75656;BME280;64252;51.094;13.714;2023-05-19T02:32:14;101317.81;;;7.62;85.99
75656;BME280;64252;51.094;13.714;2023-05-19T02:34:39;101313.13;;;7.66;86.44
75656;BME280;64252;51.094;13.714;2023-05-19T02:37:06;101325.19;;;7.67;87.44
75656;BME280;64252;51.094;13.714;2023-05-19T02:39:32;101318.03;;;7.69;85.76
75656;BME280;64252;51.094;13.714;2023-05-19T02:42:00;101320.63;;;7.74;84.68
75656;BME280;64252;51.094;13.714;2023-05-19T02:44:26;101321.47;;;7.75;85.97
75656;BME280;64252;51.094;13.714;2023-05-19T02:46:52;101325.56;;;7.77;84.48
75656;BME280;64252;51.094;13.714;2023-05-19T02:49:18;101319.25;;;7.80;84.11
75656;BME280;64252;51.094;13.714;2023-05-19T02:51:43;101312.22;;;7.86;85.42
75656;BME280;64252;51.094;13.714;2023-05-19T02:54:09;101305.81;;;7.86;85.40
75656;BME280;64252;51.094;13.714;2023-05-19T02:56:35;101310.38;;;7.90;84.56
75656;BME280;64252;51.094;13.714;2023-05-19T02:59:00;101316.47;;;7.92;83.85
75656;BME280;64252;51.094;13.714;2023-05-19T03:01:26;101310.84;;;7.92;85.10
75656;BME280;64252;51.094;13.714;2023-05-19T03:03:52;101311.66;;;7.93;84.40
75656;BME280;64252;51.094;13.714;2023-05-19T03:06:17;101310.72;;;7.89;84.72
75656;BME280;64252;51.094;13.714;2023-05-19T03:08:43;101303.31;;;7.84;85.42
75656;BME280;64252;51.094;13.714;2023-05-19T03:11:09;101299.78;;;7.75;85.96
75656;BME280;64252;51.094;13.714;2023-05-19T03:13:35;101293.34;;;7.63;86.08
75656;BME280;64252;51.094;13.714;2023-05-19T03:16:00;101287.94;;;7.58;86.12
75656;BME280;64252;51.094;13.714;2023-05-19T03:18:27;101284.97;;;7.54;86.37
75656;BME280;64252;51.094;13.714;2023-05-19T03:20:53;101286.84;;;7.50;86.14
75656;BME280;64252;51.094;13.714;2023-05-19T03:23:20;101290.22;;;7.43;87.03
75656;BME280;64252;51.094;13.714;2023-05-19T03:25:46;101290.28;;;7.35;87.44
75656;BME280;64252;51.094;13.714;2023-05-19T03:28:12;101292.63;;;7.33;87.97
75656;BME280;64252;51.094;13.714;2023-05-19T03:30:38;101299.41;;;7.32;88.23
75656;BME280;64252;51.094;13.714;2023-05-19T03:33:10;101309.00;;;7.31;88.40
75656;BME280;64252;51.094;13.714;2023-05-19T03:35:37;101313.47;;;7.32;89.24
75656;BME280;64252;51.094;13.714;2023-05-19T03:38:03;101303.44;;;7.43;89.40
75656;BME280;64252;51.094;13.714;2023-05-19T03:40:29;101311.47;;;7.53;88.39
75656;BME280;64252;51.094;13.714;2023-05-19T03:43:02;101314.50;;;7.60;87.25
75656;BME280;64252;51.094;13.714;2023-05-19T03:45:28;101311.97;;;7.67;87.42
75656;BME280;64252;51.094;13.714;2023-05-19T03:47:54;101299.41;;;7.65;86.97
75656;BME280;64252;51.094;13.714;2023-05-19T03:50:36;101305.97;;;7.69;87.21
75656;BME280;64252;51.094;13.714;2023-05-19T03:53:21;101320.63;;;7.74;87.94
75656;BME280;64252;51.094;13.714;2023-05-19T03:55:46;101315.00;;;7.74;87.25
75656;BME280;64252;51.094;13.714;2023-05-19T03:58:14;101311.59;;;7.69;87.33
75656;BME280;64252;51.094;13.714;2023-05-19T04:00:40;101317.81;;;7.74;86.81
75656;BME280;64252;51.094;13.714;2023-05-19T04:03:06;101322.31;;;7.87;87.43
75656;BME280;64252;51.094;13.714;2023-05-19T04:05:32;101315.78;;;7.96;88.18
75656;BME280;64252;51.094;13.714;2023-05-19T04:07:59;101330.56;;;8.05;87.12
75656;BME280;64252;51.094;13.714;2023-05-19T04:10:24;101314.03;;;8.15;87.11
75656;BME280;64252;51.094;13.714;2023-05-19T04:12:50;101319.91;;;8.22;83.57
75656;BME280;64252;51.094;13.714;2023-05-19T04:15:15;101322.38;;;8.24;82.73
75656;BME280;64252;51.094;13.714;2023-05-19T04:17:41;101320.66;;;8.31;83.79
75656;BME280;64252;51.094;13.714;2023-05-19T04:20:08;101315.63;;;8.37;82.08
75656;BME280;64252;51.094;13.714;2023-05-19T04:22:34;101317.25;;;8.38;83.21
75656;BME280;64252;51.094;13.714;2023-05-19T04:24:59;101317.47;;;8.45;82.39
75656;BME280;64252;51.094;13.714;2023-05-19T04:27:26;101319.00;;;8.55;81.46
75656;BME280;64252;51.094;13.714;2023-05-19T04:29:54;101324.16;;;8.65;81.73
75656;BME280;64252;51.094;13.714;2023-05-19T04:32:20;101320.72;;;8.71;80.81
75656;BME280;64252;51.094;13.714;2023-05-19T04:34:46;101320.25;;;8.81;80.86
75656;BME280;64252;51.094;13.714;2023-05-19T04:37:19;101319.31;;;8.90;80.16
75656;BME280;64252;51.094;13.714;2023-05-19T04:39:46;101312.72;;;8.86;80.64
75656;BME280;64252;51.094;13.714;2023-05-19T04:42:12;101316.72;;;8.97;80.32
75656;BME280;64252;51.094;13.714;2023-05-19T04:44:38;101319.75;;;9.04;80.95
75656;BME280;64252;51.094;13.714;2023-05-19T04:47:07;101318.22;;;9.06;80.36
75656;BME280;64252;51.094;13.714;2023-05-19T04:49:36;101311.72;;;9.18;80.12
75656;BME280;64252;51.094;13.714;2023-05-19T04:52:06;101305.78;;;9.35;79.53
75656;BME280;64252;51.094;13.714;2023-05-19T04:54:36;101315.81;;;9.48;78.41
75656;BME280;64252;51.094;13.714;2023-05-19T04:57:03;101308.84;;;9.58;78.82
75656;BME280;64252;51.094;13.714;2023-05-19T04:59:31;101310.03;;;9.57;77.83
75656;BME280;64252;51.094;13.714;2023-05-19T05:01:58;101312.31;;;9.67;77.08
75656;BME280;64252;51.094;13.714;2023-05-19T05:04:26;101309.59;;;9.70;77.14
75656;BME280;64252;51.094;13.714;2023-05-19T05:06:52;101305.06;;;9.82;77.27
75656;BME280;64252;51.094;13.714;2023-05-19T05:09:19;101311.84;;;9.93;75.62
75656;BME280;64252;51.094;13.714;2023-05-19T05:11:45;101304.28;;;9.97;76.43
75656;BME280;64252;51.094;13.714;2023-05-19T05:14:11;101310.63;;;9.94;75.48
75656;BME280;64252;51.094;13.714;2023-05-19T05:16:37;101303.53;;;10.00;75.83
75656;BME280;64252;51.094;13.714;2023-05-19T05:19:04;101303.75;;;10.23;75.14
75656;BME280;64252;51.094;13.714;2023-05-19T05:21:30;101302.03;;;10.34;74.99
75656;BME280;64252;51.094;13.714;2023-05-19T05:23:57;101303.38;;;10.55;74.89
75656;BME280;64252;51.094;13.714;2023-05-19T05:26:29;101305.44;;;10.74;73.30
75656;BME280;64252;51.094;13.714;2023-05-19T05:28:56;101306.81;;;10.99;72.44
75656;BME280;64252;51.094;13.714;2023-05-19T05:31:21;101312.75;;;11.29;71.61
75656;BME280;64252;51.094;13.714;2023-05-19T05:33:47;101306.75;;;11.73;69.79
75656;BME280;64252;51.094;13.714;2023-05-19T05:36:15;101308.00;;;12.40;68.08
75656;BME280;64252;51.094;13.714;2023-05-19T05:38:41;101304.75;;;12.64;68.00
75656;BME280;64252;51.094;13.714;2023-05-19T05:41:06;101305.44;;;13.10;66.55
75656;BME280;64252;51.094;13.714;2023-05-19T05:43:33;101313.09;;;12.80;66.65
75656;BME280;64252;51.094;13.714;2023-05-19T05:46:02;101320.09;;;12.14;67.99
75656;BME280;64252;51.094;13.714;2023-05-19T05:48:28;101308.38;;;11.93;69.68
75656;BME280;64252;51.094;13.714;2023-05-19T05:50:55;101316.72;;;12.05;68.71
75656;BME280;64252;51.094;13.714;2023-05-19T05:53:25;101318.75;;;11.85;69.75
75656;BME280;64252;51.094;13.714;2023-05-19T05:55:54;101316.81;;;11.90;71.42
75656;BME280;64252;51.094;13.714;2023-05-19T05:58:25;101320.00;;;11.88;69.69
75656;BME280;64252;51.094;13.714;2023-05-19T06:00:51;101309.81;;;12.06;71.48
75656;BME280;64252;51.094;13.714;2023-05-19T06:03:17;101325.25;;;12.09;70.51
75656;BME280;64252;51.094;13.714;2023-05-19T06:05:46;101318.31;;;12.06;69.45
75656;BME280;64252;51.094;13.714;2023-05-19T06:08:11;101324.69;;;12.22;69.71
75656;BME280;64252;51.094;13.714;2023-05-19T06:10:37;101313.47;;;12.52;69.25
75656;BME280;64252;51.094;13.714;2023-05-19T06:13:08;101318.38;;;13.08;68.08
75656;BME280;64252;51.094;13.714;2023-05-19T06:15:35;101313.25;;;13.17;67.04
75656;BME280;64252;51.094;13.714;2023-05-19T06:18:09;101313.97;;;12.84;66.16
75656;BME280;64252;51.094;13.714;2023-05-19T06:20:34;101309.25;;;12.95;66.78
75656;BME280;64252;51.094;13.714;2023-05-19T06:23:01;101317.56;;;13.37;65.53
75656;BME280;64252;51.094;13.714;2023-05-19T06:25:27;101310.97;;;13.96;63.32
75656;BME280;64252;51.094;13.714;2023-05-19T06:27:54;101310.97;;;13.96;63.28
75656;BME280;64252;51.094;13.714;2023-05-19T06:30:21;101313.72;;;14.30;62.67
75656;BME280;64252;51.094;13.714;2023-05-19T06:33:16;101306.63;;;15.08;62.94
75656;BME280;64252;51.094;13.714;2023-05-19T06:35:41;101308.13;;;15.64;59.58
75656;BME280;64252;51.094;13.714;2023-05-19T06:38:07;101296.09;;;16.70;58.73
75656;BME280;64252;51.094;13.714;2023-05-19T06:40:33;101293.50;;;17.35;53.83
75656;BME280;64252;51.094;13.714;2023-05-19T06:42:58;101292.69;;;17.24;55.28
75656;BME280;64252;51.094;13.714;2023-05-19T06:45:32;101301.97;;;18.29;52.72
75656;BME280;64252;51.094;13.714;2023-05-19T06:48:02;101290.38;;;20.24;48.12
75656;BME280;64252;51.094;13.714;2023-05-19T06:50:28;101283.22;;;20.35;46.59
75656;BME280;64252;51.094;13.714;2023-05-19T06:52:54;101284.44;;;20.38;48.99
75656;BME280;64252;51.094;13.714;2023-05-19T06:55:22;101286.63;;;20.27;45.92
75656;BME280;64252;51.094;13.714;2023-05-19T06:57:48;101288.94;;;20.85;47.80
75656;BME280;64252;51.094;13.714;2023-05-19T07:00:15;101288.25;;;20.28;45.71
75656;BME280;64252;51.094;13.714;2023-05-19T07:02:45;101289.56;;;20.50;46.24
75656;BME280;64252;51.094;13.714;2023-05-19T07:05:10;101291.34;;;20.13;46.01
75656;BME280;64252;51.094;13.714;2023-05-19T07:07:36;101286.00;;;19.55;45.79
75656;BME280;64252;51.094;13.714;2023-05-19T07:10:04;101277.25;;;18.98;47.11
75656;BME280;64252;51.094;13.714;2023-05-19T07:12:31;101281.31;;;20.52;48.60
75656;BME280;64252;51.094;13.714;2023-05-19T07:14:57;101274.56;;;18.80;47.15
75656;BME280;64252;51.094;13.714;2023-05-19T07:17:23;101281.03;;;18.43;50.51
75656;BME280;64252;51.094;13.714;2023-05-19T07:19:49;101289.50;;;19.36;47.46
75656;BME280;64252;51.094;13.714;2023-05-19T07:22:14;101280.75;;;20.84;43.59
75656;BME280;64252;51.094;13.714;2023-05-19T07:24:40;101286.50;;;19.12;45.66
75656;BME280;64252;51.094;13.714;2023-05-19T07:27:06;101277.72;;;19.64;48.10
75656;BME280;64252;51.094;13.714;2023-05-19T07:29:37;101278.84;;;20.00;45.02
75656;BME280;64252;51.094;13.714;2023-05-19T07:32:03;101288.59;;;20.33;44.15
75656;BME280;64252;51.094;13.714;2023-05-19T07:34:29;101288.53;;;19.49;44.23
75656;BME280;64252;51.094;13.714;2023-05-19T07:36:55;101273.31;;;20.13;43.29
75656;BME280;64252;51.094;13.714;2023-05-19T07:39:20;101277.38;;;20.15;42.13
75656;BME280;64252;51.094;13.714;2023-05-19T07:41:46;101273.56;;;20.72;41.31
75656;BME280;64252;51.094;13.714;2023-05-19T07:44:17;101285.19;;;20.88;41.92
75656;BME280;64252;51.094;13.714;2023-05-19T07:46:43;101265.47;;;20.67;43.50
75656;BME280;64252;51.094;13.714;2023-05-19T07:49:08;101270.94;;;19.51;45.48
75656;BME280;64252;51.094;13.714;2023-05-19T07:51:40;101281.09;;;17.74;48.26
75656;BME280;64252;51.094;13.714;2023-05-19T07:54:06;101272.41;;;16.87;50.41
75656;BME280;64252;51.094;13.714;2023-05-19T07:56:32;101264.28;;;16.89;51.05
75656;BME280;64252;51.094;13.714;2023-05-19T07:58:58;101266.91;;;17.60;48.91
75656;BME280;64252;51.094;13.714;2023-05-19T08:01:23;101262.56;;;17.16;49.95
75656;BME280;64252;51.094;13.714;2023-05-19T08:03:49;101258.13;;;17.01;50.53
75656;BME280;64252;51.094;13.714;2023-05-19T08:06:14;101255.97;;;17.33;51.41
75656;BME280;64252;51.094;13.714;2023-05-19T08:08:40;101262.56;;;17.16;50.18
75656;BME280;64252;51.094;13.714;2023-05-19T08:11:09;101261.78;;;17.08;51.60
75656;BME280;64252;51.094;13.714;2023-05-19T08:13:35;101274.06;;;16.95;49.14
75656;BME280;64252;51.094;13.714;2023-05-19T08:16:00;101279.38;;;16.40;52.23
75656;BME280;64252;51.094;13.714;2023-05-19T08:22:14;101269.19;;;16.28;52.58
75656;BME280;64252;51.094;13.714;2023-05-19T08:24:39;101272.88;;;16.46;53.57
75656;BME280;64252;51.094;13.714;2023-05-19T08:27:07;101266.34;;;16.63;53.27
75656;BME280;64252;51.094;13.714;2023-05-19T08:29:33;101281.00;;;16.80;51.74
75656;BME280;64252;51.094;13.714;2023-05-19T08:31:59;101264.31;;;16.60;53.73
75656;BME280;64252;51.094;13.714;2023-05-19T08:34:26;101267.56;;;16.52;55.48
75656;BME280;64252;51.094;13.714;2023-05-19T08:36:52;101267.16;;;16.85;53.68
75656;BME280;64252;51.094;13.714;2023-05-19T08:39:19;101264.31;;;16.60;52.42
75656;BME280;64252;51.094;13.714;2023-05-19T08:41:51;101251.19;;;17.05;52.30
75656;BME280;64252;51.094;13.714;2023-05-19T08:44:17;101254.19;;;17.68;51.28
75656;BME280;64252;51.094;13.714;2023-05-19T08:46:43;101252.94;;;18.31;50.10
75656;BME280;64252;51.094;13.714;2023-05-19T08:49:12;101260.94;;;18.54;49.83
75656;BME280;64252;51.094;13.714;2023-05-19T08:51:39;101253.91;;;18.10;50.78
75656;BME280;64252;51.094;13.714;2023-05-19T08:54:14;101257.53;;;17.48;50.95
75656;BME280;64252;51.094;13.714;2023-05-19T08:56:42;101251.41;;;17.61;51.47
75656;BME280;64252;51.094;13.714;2023-05-19T08:59:07;101247.09;;;18.45;50.85
75656;BME280;64252;51.094;13.714;2023-05-19T09:01:38;101243.22;;;18.21;50.37
75656;BME280;64252;51.094;13.714;2023-05-19T09:04:04;101242.06;;;18.63;50.90
75656;BME280;64252;51.094;13.714;2023-05-19T09:06:30;101253.88;;;18.14;49.96
75656;BME280;64252;51.094;13.714;2023-05-19T09:08:56;101253.78;;;17.66;52.19
75656;BME280;64252;51.094;13.714;2023-05-19T09:11:22;101250.88;;;17.76;50.86
75656;BME280;64252;51.094;13.714;2023-05-19T09:13:48;101245.50;;;17.85;49.95
75656;BME280;64252;51.094;13.714;2023-05-19T09:16:14;101239.97;;;18.19;49.23
75656;BME280;64252;51.094;13.714;2023-05-19T09:18:55;101237.88;;;18.23;50.35
75656;BME280;64252;51.094;13.714;2023-05-19T09:21:30;101232.41;;;17.91;50.23
75656;BME280;64252;51.094;13.714;2023-05-19T09:23:57;101231.81;;;17.59;50.64
75656;BME280;64252;51.094;13.714;2023-05-19T09:26:37;101227.06;;;17.97;49.70
75656;BME280;64252;51.094;13.714;2023-05-19T09:29:11;101225.81;;;18.50;49.98
75656;BME280;64252;51.094;13.714;2023-05-19T09:31:37;101223.06;;;18.80;49.35
75656;BME280;64252;51.094;13.714;2023-05-19T09:34:02;101234.41;;;18.50;48.70
75656;BME280;64252;51.094;13.714;2023-05-19T09:36:28;101221.63;;;17.47;49.20
75656;BME280;64252;51.094;13.714;2023-05-19T09:38:55;101233.63;;;17.18;50.49
75656;BME280;64252;51.094;13.714;2023-05-19T09:41:22;101238.09;;;17.15;51.63
75656;BME280;64252;51.094;13.714;2023-05-19T09:43:54;101219.19;;;17.49;49.75
75656;BME280;64252;51.094;13.714;2023-05-19T09:46:25;101223.53;;;17.75;49.15
75656;BME280;64252;51.094;13.714;2023-05-19T09:48:57;101224.22;;;17.97;47.59
75656;BME280;64252;51.094;13.714;2023-05-19T09:51:25;101214.38;;;18.53;48.17
75656;BME280;64252;51.094;13.714;2023-05-19T09:53:51;101211.88;;;19.26;47.45
75656;BME280;64252;51.094;13.714;2023-05-19T09:56:17;101210.28;;;19.25;46.84
75656;BME280;64252;51.094;13.714;2023-05-19T09:58:47;101204.09;;;18.56;47.06
75656;BME280;64252;51.094;13.714;2023-05-19T10:01:14;101206.19;;;18.89;47.24
75656;BME280;64252;51.094;13.714;2023-05-19T10:03:40;101197.00;;;18.71;46.44
75656;BME280;64252;51.094;13.714;2023-05-19T10:06:06;101203.84;;;18.39;47.69
75656;BME280;64252;51.094;13.714;2023-05-19T10:08:33;101199.50;;;18.69;49.79
75656;BME280;64252;51.094;13.714;2023-05-19T10:11:00;101192.41;;;18.39;47.49
75656;BME280;64252;51.094;13.714;2023-05-19T10:13:28;101195.06;;;18.98;48.58
75656;BME280;64252;51.094;13.714;2023-05-19T10:15:54;101204.38;;;19.06;48.12
75656;BME280;64252;51.094;13.714;2023-05-19T10:18:21;101198.56;;;18.34;48.81
75656;BME280;64252;51.094;13.714;2023-05-19T10:20:48;101193.28;;;17.05;50.38
75656;BME280;64252;51.094;13.714;2023-05-19T10:23:14;101199.28;;;17.35;50.86
75656;BME280;64252;51.094;13.714;2023-05-19T10:25:41;101205.75;;;17.46;50.65
75656;BME280;64252;51.094;13.714;2023-05-19T10:28:10;101202.84;;;17.61;52.18
75656;BME280;64252;51.094;13.714;2023-05-19T10:30:40;101204.47;;;17.54;51.09
75656;BME280;64252;51.094;13.714;2023-05-19T10:33:10;101180.72;;;17.72;52.71
75656;BME280;64252;51.094;13.714;2023-05-19T10:38:40;101199.19;;;18.08;50.86
75656;BME280;64252;51.094;13.714;2023-05-19T10:41:18;101186.28;;;17.93;50.78
75656;BME280;64252;51.094;13.714;2023-05-19T10:44:04;101185.59;;;17.75;52.31
75656;BME280;64252;51.094;13.714;2023-05-19T10:46:33;101178.09;;;17.29;52.80
75656;BME280;64252;51.094;13.714;2023-05-19T10:48:59;101181.44;;;17.17;52.62
75656;BME280;64252;51.094;13.714;2023-05-19T10:51:31;101179.28;;;17.35;51.93
75656;BME280;64252;51.094;13.714;2023-05-19T10:54:00;101183.28;;;17.48;51.54
75656;BME280;64252;51.094;13.714;2023-05-19T10:56:31;101195.78;;;16.96;51.29
75656;BME280;64252;51.094;13.714;2023-05-19T10:58:59;101183.78;;;17.33;53.82
75656;BME280;64252;51.094;13.714;2023-05-19T11:01:35;101182.28;;;17.80;51.63
75656;BME280;64252;51.094;13.714;2023-05-19T11:04:06;101193.16;;;17.99;50.94
75656;BME280;64252;51.094;13.714;2023-05-19T11:06:35;101177.72;;;17.93;50.52
75656;BME280;64252;51.094;13.714;2023-05-19T11:11:52;101181.88;;;18.29;51.15
75656;BME280;64252;51.094;13.714;2023-05-19T11:14:22;101185.78;;;18.50;49.74
75656;BME280;64252;51.094;13.714;2023-05-19T11:16:50;101190.06;;;18.27;50.93
75656;BME280;64252;51.094;13.714;2023-05-19T11:19:33;101188.81;;;18.28;49.43
75656;BME280;64252;51.094;13.714;2023-05-19T11:22:10;101178.22;;;18.70;50.46
75656;BME280;64252;51.094;13.714;2023-05-19T11:24:37;101180.84;;;18.54;49.92
75656;BME280;64252;51.094;13.714;2023-05-19T11:29:49;101176.19;;;18.26;50.30
75656;BME280;64252;51.094;13.714;2023-05-19T11:32:18;101176.22;;;18.22;51.58
75656;BME280;64252;51.094;13.714;2023-05-19T11:34:44;101172.06;;;18.30;51.32
75656;BME280;64252;51.094;13.714;2023-05-19T11:37:12;101169.34;;;18.16;50.91
75656;BME280;64252;51.094;13.714;2023-05-19T11:39:38;101177.66;;;18.45;51.15
75656;BME280;64252;51.094;13.714;2023-05-19T11:42:05;101177.91;;;18.16;51.05
75656;BME280;64252;51.094;13.714;2023-05-19T11:44:30;101170.19;;;18.58;52.19
75656;BME280;64252;51.094;13.714;2023-05-19T11:46:57;101175.84;;;18.61;50.24
75656;BME280;64252;51.094;13.714;2023-05-19T11:49:24;101164.91;;;18.08;51.17
75656;BME280;64252;51.094;13.714;2023-05-19T11:51:49;101177.19;;;18.05;52.47
75656;BME280;64252;51.094;13.714;2023-05-19T11:54:15;101168.03;;;18.24;51.16
75656;BME280;64252;51.094;13.714;2023-05-19T11:56:42;101165.75;;;18.50;51.10
75656;BME280;64252;51.094;13.714;2023-05-19T11:59:09;101161.53;;;18.20;51.71
75656;BME280;64252;51.094;13.714;2023-05-19T12:01:35;101162.75;;;18.64;51.39
75656;BME280;64252;51.094;13.714;2023-05-19T12:04:07;101166.72;;;18.32;50.91
75656;BME280;64252;51.094;13.714;2023-05-19T12:06:34;101160.75;;;18.16;50.86
75656;BME280;64252;51.094;13.714;2023-05-19T12:09:04;101169.66;;;17.77;51.64
75656;BME280;64252;51.094;13.714;2023-05-19T12:11:29;101170.22;;;17.47;52.57
75656;BME280;64252;51.094;13.714;2023-05-19T12:13:59;101173.38;;;17.74;52.24
75656;BME280;64252;51.094;13.714;2023-05-19T12:16:35;101173.09;;;18.88;50.70
75656;BME280;64252;51.094;13.714;2023-05-19T12:19:01;101168.69;;;19.14;48.63
75656;BME280;64252;51.094;13.714;2023-05-19T12:21:30;101169.09;;;19.12;49.97
75656;BME280;64252;51.094;13.714;2023-05-19T12:23:55;101164.91;;;18.90;49.27
75656;BME280;64252;51.094;13.714;2023-05-19T12:26:21;101172.75;;;18.45;50.30
75656;BME280;64252;51.094;13.714;2023-05-19T12:28:48;101166.91;;;18.56;51.28
75656;BME280;64252;51.094;13.714;2023-05-19T12:31:15;101153.78;;;18.62;50.35
75656;BME280;64252;51.094;13.714;2023-05-19T12:33:41;101155.59;;;18.41;50.78
75656;BME280;64252;51.094;13.714;2023-05-19T12:36:07;101157.13;;;18.91;50.92
75656;BME280;64252;51.094;13.714;2023-05-19T12:38:34;101152.78;;;19.09;49.06
75656;BME280;64252;51.094;13.714;2023-05-19T12:41:01;101154.38;;;18.80;49.72
75656;BME280;64252;51.094;13.714;2023-05-19T12:43:27;101157.03;;;18.98;49.25
75656;BME280;64252;51.094;13.714;2023-05-19T12:45:53;101157.81;;;19.02;51.07
75656;BME280;64252;51.094;13.714;2023-05-19T12:48:21;101167.06;;;18.79;50.03
75656;BME280;64252;51.094;13.714;2023-05-19T12:50:47;101161.50;;;18.65;50.23
75656;BME280;64252;51.094;13.714;2023-05-19T12:53:14;101161.34;;;18.38;50.55
75656;BME280;64252;51.094;13.714;2023-05-19T12:55:41;101155.69;;;18.34;51.55
75656;BME280;64252;51.094;13.714;2023-05-19T12:58:08;101152.56;;;18.22;51.06
75656;BME280;64252;51.094;13.714;2023-05-19T13:00:39;101151.66;;;18.28;51.27
75656;BME280;64252;51.094;13.714;2023-05-19T13:03:06;101140.06;;;18.42;50.51
75656;BME280;64252;51.094;13.714;2023-05-19T13:05:35;101144.88;;;18.90;49.10
75656;BME280;64252;51.094;13.714;2023-05-19T13:08:05;101146.72;;;19.04;48.72
75656;BME280;64252;51.094;13.714;2023-05-19T13:10:32;101151.56;;;19.10;49.83
75656;BME280;64252;51.094;13.714;2023-05-19T13:12:58;101153.28;;;19.04;50.26
75656;BME280;64252;51.094;13.714;2023-05-19T13:15:29;101145.72;;;18.50;50.59
75656;BME280;64252;51.094;13.714;2023-05-19T13:18:06;101140.66;;;18.23;51.30